createdAt,value
2019-03-13T00:00:25.291Z,109.78
2019-03-13T00:02:57.581Z,115.88
2019-03-13T00:05:29.411Z,113.65
2019-03-13T00:08:01.287Z,125.92
2019-03-13T00:10:33.172Z,112.12
2019-03-13T00:13:05.089Z,111.22
2019-03-13T00:15:37.388Z,118.50
2019-03-13T00:18:09.588Z,133.87
2019-03-13T00:20:41.616Z,152.80
2019-03-13T00:23:13.641Z,150.93
2019-03-13T00:25:45.310Z,180.80
2019-03-13T00:28:17.062Z,168.32
2019-03-13T00:30:48.982Z,132.63
2019-03-13T00:33:21.079Z,131.50
2019-03-13T00:35:52.890Z,125.60
2019-03-13T00:38:26.002Z,131.47
2019-03-13T00:40:57.911Z,122.47
2019-03-13T00:43:29.507Z,161.75
2019-03-13T00:46:01.479Z,138.72
2019-03-13T00:48:33.356Z,131.45
2019-03-13T00:51:05.142Z,147.22
2019-03-13T00:53:37.253Z,149.23
2019-03-13T00:56:09.107Z,146.35
2019-03-13T00:58:41.052Z,148.45
2019-03-13T01:01:14.084Z,157.55
2019-03-13T01:04:06.622Z,158.40
2019-03-13T01:06:39.780Z,153.50
2019-03-13T01:09:11.412Z,164.35
2019-03-13T01:11:42.983Z,164.18
2019-03-13T01:14:14.757Z,161.40
2019-03-13T01:16:46.735Z,151.32
2019-03-13T01:19:18.573Z,155.12
2019-03-13T01:21:50.453Z,160.22
2019-03-13T01:24:22.358Z,155.37
2019-03-13T01:26:54.245Z,156.67
2019-03-13T01:29:26.499Z,150.87
2019-03-13T01:31:59.759Z,153.55
2019-03-13T01:34:33.114Z,164.52
2019-03-13T01:37:04.890Z,157.18
2019-03-13T01:39:37.344Z,151.80
2019-03-13T01:42:09.531Z,149.75
2019-03-13T01:44:41.299Z,155.45
2019-03-13T01:47:13.154Z,166.30
2019-03-13T01:49:45.414Z,144.87
2019-03-13T01:52:17.300Z,148.80
2019-03-13T01:54:48.963Z,158.22
2019-03-13T01:57:20.883Z,145.70
2019-03-13T01:59:53.038Z,157.82
2019-03-13T02:02:24.766Z,147.05
2019-03-13T02:04:57.969Z,149.18
2019-03-13T02:07:49.589Z,155.45
2019-03-13T02:10:22.188Z,152.97
2019-03-13T02:12:54.903Z,148.95
2019-03-13T02:15:28.364Z,156.78
2019-03-13T02:18:00.066Z,157.40
2019-03-13T02:20:32.609Z,142.57
2019-03-13T02:23:04.455Z,147.85
2019-03-13T02:25:36.195Z,145.92
2019-03-13T02:28:07.702Z,151.18
2019-03-13T02:30:39.812Z,149.95
2019-03-13T02:33:20.688Z,145.15
2019-03-13T02:35:52.643Z,144.75
2019-03-13T02:38:24.570Z,139.72
2019-03-13T02:40:57.603Z,149.80
2019-03-13T02:43:29.505Z,138.47
2019-03-13T02:46:01.350Z,145.95
2019-03-13T02:48:33.540Z,141.03
2019-03-13T02:51:05.341Z,142.65
2019-03-13T02:53:38.413Z,138.15
2019-03-13T02:56:10.694Z,140.55
2019-03-13T02:58:42.439Z,139.32
2019-03-13T03:01:15.863Z,137.15
2019-03-13T03:03:49.010Z,141.37
2019-03-13T03:06:21.155Z,148.05
2019-03-13T03:08:53.285Z,141.15
2019-03-13T03:11:25.166Z,134.37
2019-03-13T03:13:57.111Z,135.82
2019-03-13T03:16:29.012Z,138.55
2019-03-13T03:19:00.944Z,143.78
2019-03-13T03:21:33.240Z,131.35
2019-03-13T03:24:05.303Z,136.12
2019-03-13T03:26:37.221Z,131.18
2019-03-13T03:29:09.286Z,136.12
2019-03-13T03:31:41.451Z,132.18
2019-03-13T03:34:31.424Z,128.00
2019-03-13T03:37:03.146Z,127.75
2019-03-13T03:39:34.695Z,130.50
2019-03-13T03:42:08.256Z,131.50
2019-03-13T03:44:40.253Z,129.00
2019-03-13T03:47:12.010Z,131.57
2019-03-13T03:50:02.872Z,134.80
2019-03-13T03:52:36.875Z,131.82
2019-03-13T03:55:14.648Z,127.38
2019-03-13T03:57:46.376Z,127.93
2019-03-13T04:00:20.496Z,129.23
2019-03-13T04:02:52.210Z,123.45
2019-03-13T04:05:23.936Z,121.90
2019-03-13T04:07:56.244Z,119.33
2019-03-13T04:10:27.877Z,120.82
2019-03-13T04:13:02.437Z,115.57
2019-03-13T04:15:34.242Z,118.57
2019-03-13T04:18:25.136Z,115.55
2019-03-13T04:21:08.170Z,110.50
2019-03-13T04:23:59.239Z,96.20
2019-03-13T04:26:34.241Z,86.20
2019-03-13T04:29:06.466Z,95.67
2019-03-13T04:31:42.264Z,104.58
2019-03-13T04:34:14.727Z,115.97
2019-03-13T04:36:46.254Z,94.35
2019-03-13T04:39:37.220Z,72.85
2019-03-13T04:42:10.832Z,67.00
2019-03-13T04:44:43.063Z,60.70
2019-03-13T04:47:15.018Z,55.43
2019-03-13T04:49:47.030Z,58.73
2019-03-13T04:52:18.721Z,57.23
2019-03-13T04:54:53.609Z,51.23
2019-03-13T04:57:25.317Z,55.60
2019-03-13T04:59:57.109Z,51.63
2019-03-13T05:02:29.108Z,39.73
2019-03-13T05:05:02.542Z,39.03
2019-03-13T05:07:35.202Z,39.45
2019-03-13T05:10:29.039Z,39.40
2019-03-13T05:13:01.828Z,40.50
2019-03-13T05:15:33.824Z,41.25
2019-03-13T05:18:08.449Z,41.75
2019-03-13T05:20:41.206Z,43.13
2019-03-13T05:23:12.953Z,41.25
2019-03-13T05:25:44.752Z,42.65
2019-03-13T05:28:16.287Z,42.62
2019-03-13T05:30:48.163Z,42.48
2019-03-13T05:33:20.137Z,43.00
2019-03-13T05:35:51.958Z,41.33
2019-03-13T05:38:24.143Z,45.88
2019-03-13T05:40:55.983Z,41.33
2019-03-13T05:43:29.229Z,44.77
2019-03-13T05:46:01.357Z,46.25
2019-03-13T05:48:32.955Z,43.85
2019-03-13T05:51:05.323Z,63.95
2019-03-13T05:53:37.089Z,41.37
2019-03-13T05:56:09.095Z,40.38
2019-03-13T05:58:40.757Z,51.53
2019-03-13T06:01:12.788Z,44.75
2019-03-13T06:03:44.342Z,42.48
2019-03-13T06:06:16.476Z,55.40
2019-03-13T06:08:48.282Z,47.62
2019-03-13T06:11:20.933Z,43.20
2019-03-13T06:13:53.313Z,42.13
2019-03-13T06:16:24.966Z,37.73
2019-03-13T06:18:57.030Z,40.55
2019-03-13T06:21:28.815Z,39.30
2019-03-13T06:24:00.809Z,38.63
2019-03-13T06:26:33.185Z,39.15
2019-03-13T06:29:05.207Z,36.08
2019-03-13T06:31:37.431Z,50.98
2019-03-13T06:34:11.462Z,33.50
2019-03-13T06:37:02.269Z,31.80
2019-03-13T06:39:34.556Z,30.05
2019-03-13T06:42:06.304Z,30.20
2019-03-13T06:44:42.744Z,31.07
2019-03-13T06:47:15.859Z,31.55
2019-03-13T06:50:09.294Z,33.02
2019-03-13T06:52:41.619Z,30.65
2019-03-13T06:55:13.405Z,30.52
2019-03-13T06:57:45.190Z,32.48
2019-03-13T07:00:22.009Z,31.80
2019-03-13T07:02:55.546Z,33.10
2019-03-13T07:05:29.941Z,33.08
2019-03-13T07:08:03.347Z,32.93
2019-03-13T07:10:36.945Z,32.67
2019-03-13T07:13:10.656Z,31.62
2019-03-13T07:15:44.267Z,34.23
2019-03-13T07:21:09.075Z,30.90
2019-03-13T07:23:42.503Z,30.90
2019-03-13T07:26:16.587Z,29.98
2019-03-13T07:28:52.385Z,30.10
2019-03-13T07:31:25.020Z,29.42
2019-03-13T07:33:58.240Z,32.88
2019-03-13T07:36:33.868Z,30.17
2019-03-13T07:39:08.786Z,30.27
2019-03-13T07:41:48.781Z,29.65
2019-03-13T07:44:23.466Z,36.13
2019-03-13T07:47:17.954Z,30.15
2019-03-13T07:50:01.313Z,30.80
2019-03-13T07:52:35.201Z,30.05
2019-03-13T07:55:09.642Z,30.17
2019-03-13T07:57:44.654Z,30.17
2019-03-13T08:00:21.707Z,43.65
2019-03-13T08:02:54.959Z,30.68
2019-03-13T08:08:19.262Z,31.62
2019-03-13T08:10:52.438Z,29.32
2019-03-13T08:13:26.073Z,31.05
2019-03-13T08:16:02.668Z,28.00
2019-03-13T08:18:35.807Z,27.32
2019-03-13T08:21:09.012Z,29.98
2019-03-13T08:24:01.379Z,28.20
2019-03-13T08:26:34.438Z,27.80
2019-03-13T08:29:08.308Z,28.87
2019-03-13T08:31:41.640Z,27.13
2019-03-13T08:34:14.890Z,27.13
2019-03-13T08:36:47.925Z,27.13
2019-03-13T08:39:21.406Z,25.32
2019-03-13T08:41:55.491Z,24.95
2019-03-13T08:44:29.662Z,26.68
2019-03-13T08:47:03.232Z,25.45
2019-03-13T08:49:39.483Z,24.57
2019-03-13T08:52:12.529Z,23.77
2019-03-13T08:54:46.056Z,30.45
2019-03-13T08:57:39.344Z,24.85
2019-03-13T09:00:23.275Z,24.07
2019-03-13T09:02:56.542Z,22.52
2019-03-13T09:05:29.857Z,21.60
2019-03-13T09:08:05.629Z,21.45
2019-03-13T09:10:38.996Z,24.12
2019-03-13T09:13:12.236Z,21.85
2019-03-13T09:15:45.802Z,23.10
2019-03-13T09:18:18.828Z,21.68
2019-03-13T09:20:52.334Z,21.60
2019-03-13T09:23:25.407Z,22.27
2019-03-13T09:25:59.120Z,25.85
2019-03-13T09:28:32.142Z,19.57
2019-03-13T09:31:05.401Z,19.85
2019-03-13T09:33:36.698Z,19.87
2019-03-13T09:36:10.222Z,18.52
2019-03-13T09:38:43.344Z,17.48
2019-03-13T09:41:16.855Z,17.73
2019-03-13T09:43:50.016Z,17.73
2019-03-13T09:46:23.354Z,17.00
2019-03-13T09:48:56.276Z,15.48
2019-03-13T09:51:30.383Z,21.90
2019-03-13T09:54:03.647Z,20.08
2019-03-13T09:56:37.384Z,18.05
2019-03-13T09:59:11.118Z,15.98
2019-03-13T10:01:46.858Z,15.48
2019-03-13T10:04:19.830Z,21.42
2019-03-13T10:06:53.504Z,16.00
2019-03-13T10:09:26.825Z,18.25
2019-03-13T10:12:00.735Z,14.75
2019-03-13T10:14:34.019Z,12.93
2019-03-13T10:17:14.960Z,19.02
2019-03-13T10:19:47.782Z,20.05
2019-03-13T10:22:40.058Z,18.02
2019-03-13T10:25:12.965Z,16.20
2019-03-13T10:27:46.374Z,16.55
2019-03-13T10:30:20.018Z,14.78
2019-03-13T10:32:54.978Z,20.62
2019-03-13T10:35:28.072Z,20.97
2019-03-13T10:38:13.159Z,20.55
2019-03-13T10:40:38.612Z,28.85
2019-03-13T10:43:12.328Z,19.07
2019-03-13T10:45:45.337Z,21.33
2019-03-13T10:48:18.384Z,19.32
2019-03-13T10:50:51.718Z,19.87
2019-03-13T10:53:26.340Z,23.87
2019-03-13T10:55:59.228Z,21.48
2019-03-13T10:58:32.507Z,21.20
2019-03-13T11:01:05.849Z,19.98
2019-03-13T11:03:39.239Z,17.25
2019-03-13T11:06:10.979Z,22.35
2019-03-13T11:08:44.607Z,24.30
2019-03-13T11:11:20.740Z,20.05
2019-03-13T11:13:53.954Z,19.15
2019-03-13T11:16:26.939Z,25.85
2019-03-13T11:19:00.740Z,21.82
2019-03-13T11:21:33.541Z,25.60
2019-03-13T11:24:26.158Z,34.13
2019-03-13T11:26:59.440Z,25.80
2019-03-13T11:29:32.781Z,31.10
2019-03-13T11:32:24.787Z,20.60
2019-03-13T11:34:58.329Z,25.92
2019-03-13T11:37:31.225Z,26.17
2019-03-13T11:40:04.875Z,33.90
2019-03-13T11:42:38.185Z,29.40
2019-03-13T11:45:13.417Z,27.48
2019-03-13T11:47:47.380Z,38.58
2019-03-13T11:50:20.029Z,26.37
2019-03-13T11:52:53.598Z,27.70
2019-03-13T11:55:28.984Z,29.90
2019-03-13T11:58:02.377Z,23.65
2019-03-13T12:00:36.122Z,25.55
2019-03-13T12:03:12.210Z,28.87
2019-03-13T12:05:48.524Z,34.23
2019-03-13T12:08:22.037Z,32.28
2019-03-13T12:10:59.545Z,35.03
2019-03-13T12:13:35.440Z,30.27
2019-03-13T12:16:08.400Z,25.62
2019-03-13T12:18:44.579Z,37.20
2019-03-13T12:21:18.183Z,33.80
2019-03-13T12:23:51.900Z,39.23
2019-03-13T12:26:25.282Z,40.40
2019-03-13T12:29:17.808Z,30.95
2019-03-13T12:31:51.411Z,41.53
2019-03-13T12:34:24.434Z,38.67
2019-03-13T12:36:58.092Z,34.30
2019-03-13T12:39:31.293Z,37.33
2019-03-13T12:42:04.679Z,43.48
2019-03-13T12:44:37.123Z,43.55
2019-03-13T12:47:10.398Z,37.53
2019-03-13T12:49:43.476Z,34.73
2019-03-13T12:52:16.781Z,34.27
2019-03-13T12:54:49.890Z,32.23
2019-03-13T12:57:23.790Z,28.10
2019-03-13T12:59:57.067Z,37.13
2019-03-13T13:02:30.283Z,32.93
2019-03-13T13:05:03.504Z,27.77
2019-03-13T13:07:37.043Z,30.72
2019-03-13T13:10:11.701Z,32.08
2019-03-13T13:12:46.227Z,26.50
2019-03-13T13:15:19.418Z,27.30
2019-03-13T13:17:51.441Z,29.15
2019-03-13T13:20:24.156Z,30.90
2019-03-13T13:22:56.055Z,35.13
2019-03-13T13:25:27.835Z,24.72
2019-03-13T13:27:59.486Z,27.98
2019-03-13T13:30:31.538Z,28.02
2019-03-13T13:33:03.748Z,31.37
2019-03-13T13:35:42.940Z,27.37
2019-03-13T13:38:15.034Z,21.23
2019-03-13T13:40:46.744Z,25.27
2019-03-13T13:43:27.883Z,27.77
2019-03-13T13:46:03.800Z,30.12
2019-03-13T13:48:44.825Z,21.55
2019-03-13T13:51:25.591Z,23.50
2019-03-13T13:53:57.957Z,21.27
2019-03-13T13:56:29.788Z,24.45
2019-03-13T13:59:16.570Z,23.20
2019-03-13T14:01:48.544Z,24.85
2019-03-13T14:04:20.318Z,21.23
2019-03-13T14:06:52.181Z,32.85
2019-03-13T14:09:25.147Z,22.90
2019-03-13T14:11:57.012Z,22.05
2019-03-13T14:14:29.064Z,22.40
2019-03-13T14:17:01.885Z,29.42
2019-03-13T14:19:33.641Z,25.35
2019-03-13T14:22:25.819Z,31.93
2019-03-13T14:24:57.553Z,34.38
2019-03-13T14:27:28.895Z,32.58
2019-03-13T14:30:01.112Z,35.30
2019-03-13T14:32:32.794Z,35.08
2019-03-13T14:35:04.361Z,41.55
2019-03-13T14:37:36.734Z,61.83
2019-03-13T14:40:12.427Z,64.45
2019-03-13T14:42:47.940Z,75.65
2019-03-13T14:45:21.509Z,83.87
2019-03-13T14:47:53.369Z,77.67
2019-03-13T14:50:25.551Z,96.50
2019-03-13T14:52:57.783Z,67.75
2019-03-13T14:55:30.354Z,51.18
2019-03-13T14:58:03.916Z,44.13
2019-03-13T15:00:36.390Z,41.23
2019-03-13T15:03:11.285Z,39.50
2019-03-13T15:05:43.152Z,35.17
2019-03-13T15:08:15.174Z,31.20
2019-03-13T15:10:46.749Z,34.70
2019-03-13T15:13:18.110Z,30.55
2019-03-13T15:15:49.947Z,26.77
2019-03-13T15:18:21.754Z,30.90
2019-03-13T15:20:53.703Z,29.15
2019-03-13T15:23:26.444Z,24.65
2019-03-13T15:26:17.500Z,32.55
2019-03-13T15:28:49.466Z,29.10
2019-03-13T15:31:21.547Z,30.77
2019-03-13T15:33:53.203Z,25.08
2019-03-13T15:36:25.815Z,26.90
2019-03-13T15:38:57.479Z,26.45
2019-03-13T15:41:29.163Z,27.07
2019-03-13T15:44:01.549Z,27.67
2019-03-13T15:46:33.115Z,29.05
2019-03-13T15:49:04.960Z,32.23
2019-03-13T15:51:38.834Z,29.50
2019-03-13T15:54:10.354Z,32.90
2019-03-13T15:56:46.355Z,31.70
2019-03-13T15:59:18.079Z,36.00
2019-03-13T16:01:58.184Z,37.10
2019-03-13T16:04:29.796Z,30.92
2019-03-13T16:07:04.500Z,35.95
2019-03-13T16:09:36.162Z,37.48
2019-03-13T16:12:17.088Z,33.18
2019-03-13T16:14:48.820Z,30.12
2019-03-13T16:17:20.266Z,34.13
2019-03-13T16:19:52.205Z,27.35
2019-03-13T16:22:24.790Z,34.18
2019-03-13T16:24:56.524Z,34.27
2019-03-13T16:27:28.723Z,33.85
2019-03-13T16:30:23.045Z,31.17
2019-03-13T16:32:55.354Z,31.55
2019-03-13T16:35:27.214Z,35.40
2019-03-13T16:37:59.367Z,31.77
2019-03-13T16:40:32.074Z,32.78
2019-03-13T16:43:03.845Z,33.70
2019-03-13T16:45:36.064Z,33.05
2019-03-13T16:48:08.459Z,35.92
2019-03-13T16:50:40.849Z,38.48
2019-03-13T16:53:12.608Z,35.13
2019-03-13T16:55:44.500Z,36.68
2019-03-13T16:58:25.229Z,36.75
2019-03-13T17:00:57.323Z,37.88
2019-03-13T17:03:29.066Z,39.67
2019-03-13T17:06:00.773Z,39.13
2019-03-13T17:08:32.945Z,35.13
2019-03-13T17:11:06.811Z,38.92
2019-03-13T17:13:39.257Z,45.70
2019-03-13T17:16:11.211Z,33.13
2019-03-13T17:18:43.387Z,37.03
2019-03-13T17:21:15.435Z,38.35
2019-03-13T17:23:47.343Z,38.05
2019-03-13T17:26:19.164Z,35.08
2019-03-13T17:28:51.262Z,38.23
2019-03-13T17:31:23.147Z,42.35
2019-03-13T17:33:54.686Z,36.10
2019-03-13T17:36:27.254Z,34.83
2019-03-13T17:38:59.032Z,34.38
2019-03-13T17:41:30.896Z,33.45
2019-03-13T17:44:03.133Z,34.95
2019-03-13T17:46:34.951Z,37.50
2019-03-13T17:49:26.036Z,44.73
2019-03-13T17:51:58.267Z,37.08
2019-03-13T17:54:30.841Z,39.53
2019-03-13T17:57:02.645Z,44.75
2019-03-13T17:59:34.328Z,38.13
2019-03-13T18:02:06.184Z,42.25
2019-03-13T18:04:38.549Z,37.83
2019-03-13T18:07:10.221Z,40.65
2019-03-13T18:09:42.186Z,43.30
2019-03-13T18:12:14.226Z,39.27
2019-03-13T18:14:45.730Z,39.23
2019-03-13T18:17:17.745Z,38.90
2019-03-13T18:19:50.290Z,35.60
2019-03-13T18:22:25.223Z,37.58
2019-03-13T18:24:57.178Z,39.48
2019-03-13T18:27:29.342Z,39.30
2019-03-13T18:30:01.106Z,43.17
2019-03-13T18:32:41.582Z,40.60
2019-03-13T18:35:07.056Z,36.25
2019-03-13T18:37:38.659Z,40.73
2019-03-13T18:40:14.276Z,46.02
2019-03-13T18:42:46.566Z,39.05
2019-03-13T18:45:22.425Z,43.75
2019-03-13T18:47:55.318Z,42.40
2019-03-13T18:50:27.853Z,44.05
2019-03-13T18:52:59.732Z,41.63
2019-03-13T18:55:34.376Z,43.05
2019-03-13T18:58:06.182Z,41.90
2019-03-13T19:00:39.777Z,42.95
2019-03-13T19:03:12.234Z,45.70
2019-03-13T19:05:45.507Z,43.08
2019-03-13T19:08:17.260Z,44.55
2019-03-13T19:10:48.955Z,40.60
2019-03-13T19:13:20.688Z,50.70
2019-03-13T19:15:52.746Z,42.03
2019-03-13T19:18:27.003Z,46.23
2019-03-13T19:21:00.572Z,41.13
2019-03-13T19:23:32.498Z,46.83
2019-03-13T19:26:04.412Z,45.38
2019-03-13T19:28:36.677Z,43.90
2019-03-13T19:31:08.622Z,49.10
2019-03-13T19:33:59.502Z,45.45
2019-03-13T19:36:31.465Z,42.83
2019-03-13T19:39:03.232Z,46.85
2019-03-13T19:41:35.869Z,44.65
2019-03-13T19:44:07.709Z,45.73
2019-03-13T19:46:39.271Z,46.55
2019-03-13T19:49:10.998Z,45.15
2019-03-13T19:51:42.771Z,45.78
2019-03-13T19:54:14.482Z,47.13
2019-03-13T19:56:46.449Z,40.43
2019-03-13T19:59:18.207Z,45.78
2019-03-13T20:01:50.031Z,44.05
2019-03-13T20:04:22.197Z,39.95
2019-03-13T20:06:54.859Z,42.83
2019-03-13T20:09:26.645Z,46.28
2019-03-13T20:11:58.720Z,45.35
2019-03-13T20:14:30.368Z,42.85
2019-03-13T20:17:02.028Z,44.15
2019-03-13T20:19:34.120Z,41.58
2019-03-13T20:22:05.737Z,39.30
2019-03-13T20:24:38.723Z,44.63
2019-03-13T20:27:11.022Z,43.78
2019-03-13T20:29:42.766Z,38.13
2019-03-13T20:32:15.376Z,36.50
2019-03-13T20:34:46.855Z,43.40
2019-03-13T20:37:19.236Z,44.65
2019-03-13T20:39:51.025Z,38.25
2019-03-13T20:42:23.040Z,42.05
2019-03-13T20:44:54.841Z,44.88
2019-03-13T20:47:26.597Z,43.65
2019-03-13T20:49:58.309Z,46.58
2019-03-13T20:52:50.701Z,45.33
2019-03-13T20:55:25.126Z,43.95
2019-03-13T20:57:57.007Z,45.05
2019-03-13T21:00:30.302Z,41.08
2019-03-13T21:03:02.133Z,48.02
2019-03-13T21:05:34.224Z,48.80
2019-03-13T21:08:07.933Z,47.25
2019-03-13T21:10:40.144Z,47.23
2019-03-13T21:13:14.310Z,45.83
2019-03-13T21:15:46.784Z,39.75
2019-03-13T21:18:18.473Z,48.08
2019-03-13T21:20:50.128Z,50.17
2019-03-13T21:23:22.010Z,49.63
2019-03-13T21:25:53.681Z,43.05
2019-03-13T21:28:25.498Z,49.77
2019-03-13T21:30:57.564Z,44.95
2019-03-13T21:33:29.413Z,43.05
2019-03-13T21:36:01.071Z,52.27
2019-03-13T21:38:33.233Z,43.48
2019-03-13T21:41:04.844Z,49.73
2019-03-13T21:43:36.368Z,44.20
2019-03-13T21:46:08.128Z,44.88
2019-03-13T21:48:39.772Z,54.90
2019-03-13T21:51:11.824Z,51.75
2019-03-13T21:53:43.750Z,50.98
2019-03-13T21:56:15.948Z,49.90
2019-03-13T21:58:47.772Z,46.98
2019-03-13T22:01:25.743Z,57.62
2019-03-13T22:04:24.244Z,51.90
2019-03-13T22:06:49.704Z,51.90
2019-03-13T22:09:22.627Z,49.88
2019-03-13T22:11:55.191Z,54.85
2019-03-13T22:14:27.031Z,47.95
2019-03-13T22:16:58.843Z,50.75
2019-03-13T22:19:35.098Z,51.28
2019-03-13T22:22:06.752Z,51.70
2019-03-13T22:24:38.551Z,54.80
2019-03-13T22:27:10.689Z,53.13
2019-03-13T22:29:42.556Z,51.28
2019-03-13T22:32:14.411Z,56.75
2019-03-13T22:34:46.735Z,55.98
2019-03-13T22:37:18.403Z,52.40
2019-03-13T22:39:50.220Z,50.28
2019-03-13T22:42:22.041Z,52.40
2019-03-13T22:44:53.946Z,58.95
2019-03-13T22:47:25.993Z,57.15
2019-03-13T22:49:58.594Z,56.63
2019-03-13T22:52:30.491Z,53.55
2019-03-13T22:55:02.500Z,61.05
2019-03-13T22:57:34.344Z,55.88
2019-03-13T23:00:08.788Z,56.55
2019-03-13T23:02:40.747Z,60.17
2019-03-13T23:05:12.749Z,61.50
2019-03-13T23:07:44.744Z,59.88
2019-03-13T23:10:21.343Z,55.55
2019-03-13T23:12:53.475Z,58.35
2019-03-13T23:15:25.303Z,57.13
2019-03-13T23:17:58.562Z,66.40
2019-03-13T23:20:31.547Z,66.72
2019-03-13T23:23:03.082Z,63.65
2019-03-13T23:25:35.169Z,67.37
2019-03-13T23:28:07.136Z,61.00
2019-03-13T23:30:38.970Z,71.35
2019-03-13T23:33:11.279Z,71.62
2019-03-13T23:35:43.054Z,69.90
2019-03-13T23:38:15.214Z,71.75
2019-03-13T23:40:47.157Z,78.70
2019-03-13T23:43:19.248Z,76.75
2019-03-13T23:45:51.217Z,72.90
2019-03-13T23:48:23.317Z,74.53
2019-03-13T23:50:55.225Z,89.90
2019-03-13T23:53:27.151Z,89.15
2019-03-13T23:55:59.552Z,94.50
2019-03-13T23:58:31.502Z,86.65
